Terminal Aerodrome Forecast
Issued by NWS

Home | Current Version | Previous Version | Text Only | Print | Product List | Glossary On
Versions: 1 2 3 4 5 6 7 8 9 10 11 12 13 14 15 16 17 18 19 20 21
000
FTUS45 KTFX 050928 AAC
TAFCTB
TAF AMD
KCTB 050928Z 0509/0606 35009KT 5SM -RA BR BKN005 OVC035
     FM052200 31011KT 6SM BR BKN008 BKN020 OVC050=

USA.gov is the U.S. government's official web portal to all federal, state and local government web resources and services.